createdAt,value
2022-11-09T00:01:05.759Z,42.75
2022-11-09T00:03:32.693Z,53.22
2022-11-09T00:06:00.564Z,56.13
2022-11-09T00:08:27.604Z,49.42
2022-11-09T00:10:54.425Z,44.60
2022-11-09T00:13:22.127Z,47.47
2022-11-09T00:15:49.423Z,44.88
2022-11-09T00:18:16.124Z,48.53
2022-11-09T00:20:47.702Z,47.70
2022-11-09T00:23:15.416Z,44.95
2022-11-09T00:25:42.112Z,42.33
2022-11-09T00:28:08.910Z,38.55
2022-11-09T00:30:35.668Z,35.47
2022-11-09T00:33:02.354Z,33.83
2022-11-09T00:35:28.990Z,38.08
2022-11-09T00:37:56.002Z,36.78
2022-11-09T00:40:22.864Z,39.13
2022-11-09T00:42:49.469Z,42.08
2022-11-09T00:45:16.562Z,35.95
2022-11-09T00:47:44.548Z,37.72
2022-11-09T00:50:11.265Z,37.50
2022-11-09T00:52:38.433Z,40.40
2022-11-09T00:55:05.636Z,39.00
2022-11-09T00:57:32.349Z,42.03
2022-11-09T00:59:59.006Z,36.38
2022-11-09T01:02:25.777Z,36.60
2022-11-09T01:04:52.492Z,38.63
2022-11-09T01:07:19.490Z,37.67
2022-11-09T01:09:46.369Z,37.45
2022-11-09T01:12:13.050Z,36.40
2022-11-09T01:14:39.691Z,40.05
2022-11-09T01:17:06.512Z,41.63
2022-11-09T01:19:33.141Z,43.55
2022-11-09T01:21:59.788Z,46.53
2022-11-09T01:24:26.442Z,40.97
2022-11-09T01:26:53.037Z,38.83
2022-11-09T01:29:19.692Z,43.28
2022-11-09T01:31:46.837Z,42.03
2022-11-09T01:34:13.497Z,42.85
2022-11-09T01:36:40.052Z,42.03
2022-11-09T01:39:06.904Z,41.03
2022-11-09T01:41:33.581Z,45.03
2022-11-09T01:44:18.480Z,43.78
2022-11-09T01:46:59.846Z,43.55
2022-11-09T01:49:42.006Z,39.60
2022-11-09T01:52:16.764Z,39.40
2022-11-09T01:54:49.114Z,42.22
2022-11-09T02:00:02.874Z,43.53
2022-11-09T02:02:29.589Z,46.20
2022-11-09T02:05:01.657Z,42.08
2022-11-09T02:07:28.994Z,37.15
2022-11-09T02:10:13.572Z,40.90
2022-11-09T02:12:41.130Z,41.28
2022-11-09T02:15:10.506Z,35.83
2022-11-09T02:17:37.746Z,37.15
2022-11-09T02:20:10.920Z,40.92
2022-11-09T02:22:37.518Z,42.75
2022-11-09T02:25:05.077Z,44.28
2022-11-09T02:27:32.296Z,38.38
2022-11-09T02:30:00.664Z,40.20
2022-11-09T02:32:29.902Z,38.90
2022-11-09T02:34:57.094Z,38.30
2022-11-09T02:37:34.608Z,45.35
2022-11-09T02:40:04.650Z,40.28
2022-11-09T02:42:31.907Z,42.35
2022-11-09T02:45:00.025Z,38.83
2022-11-09T02:47:27.193Z,39.00
2022-11-09T02:49:54.079Z,42.55
2022-11-09T02:52:20.742Z,39.58
2022-11-09T02:54:47.802Z,38.70
2022-11-09T02:57:14.457Z,40.08
2022-11-09T02:59:41.140Z,34.75
2022-11-09T03:02:07.764Z,36.00
2022-11-09T03:04:34.513Z,43.58
2022-11-09T03:07:01.327Z,46.03
2022-11-09T03:09:27.981Z,46.55
2022-11-09T03:11:54.635Z,39.88
2022-11-09T03:14:21.373Z,39.28
2022-11-09T03:16:50.802Z,41.42
2022-11-09T03:19:17.790Z,46.78
2022-11-09T03:21:44.411Z,43.35
2022-11-09T03:24:11.051Z,47.95
2022-11-09T03:26:37.716Z,48.00
2022-11-09T03:29:04.323Z,47.58
2022-11-09T03:31:30.980Z,45.92
2022-11-09T03:33:57.620Z,44.53
2022-11-09T03:36:24.402Z,43.38
2022-11-09T03:38:51.090Z,43.45
2022-11-09T03:41:18.274Z,50.60
2022-11-09T03:43:44.828Z,51.25
2022-11-09T03:46:11.458Z,47.85
2022-11-09T03:48:38.099Z,51.45
2022-11-09T03:51:04.755Z,47.42
2022-11-09T03:53:31.583Z,47.47
2022-11-09T03:55:58.416Z,46.30
2022-11-09T03:58:25.024Z,45.85
2022-11-09T04:00:51.690Z,47.58
2022-11-09T04:03:18.504Z,57.78
2022-11-09T04:05:45.339Z,49.50
2022-11-09T04:08:12.182Z,51.88
2022-11-09T04:10:39.126Z,66.25
2022-11-09T04:13:05.849Z,54.78
2022-11-09T04:15:32.497Z,57.97
2022-11-09T04:18:01.106Z,59.90
2022-11-09T04:20:29.684Z,58.00
2022-11-09T04:22:59.004Z,57.90
2022-11-09T04:25:26.411Z,56.55
2022-11-09T04:27:57.873Z,51.47
2022-11-09T04:30:28.209Z,56.67
2022-11-09T04:32:56.584Z,51.47
2022-11-09T04:35:25.739Z,52.83
2022-11-09T04:38:00.859Z,55.47
2022-11-09T04:40:29.876Z,53.13
2022-11-09T04:42:59.775Z,55.97
2022-11-09T04:45:27.148Z,55.58
2022-11-09T04:48:04.504Z,52.95
2022-11-09T04:50:31.857Z,56.40
2022-11-09T04:53:10.568Z,57.60
2022-11-09T04:55:37.929Z,60.40
2022-11-09T04:58:05.067Z,57.20
2022-11-09T05:00:31.767Z,61.40
2022-11-09T05:03:03.794Z,66.07
2022-11-09T05:05:30.872Z,54.88
2022-11-09T05:07:57.429Z,63.00
2022-11-09T05:10:24.257Z,63.65
2022-11-09T05:12:50.985Z,55.03
2022-11-09T05:15:17.711Z,55.53
2022-11-09T05:17:44.631Z,54.42
2022-11-09T05:20:11.739Z,64.20
2022-11-09T05:22:59.712Z,57.75
2022-11-09T05:25:26.292Z,56.97
2022-11-09T05:27:53.227Z,69.40
2022-11-09T05:30:20.083Z,57.08
2022-11-09T05:32:46.712Z,70.18
2022-11-09T05:35:13.560Z,62.55
2022-11-09T05:37:40.567Z,56.17
2022-11-09T05:40:09.285Z,62.47
2022-11-09T05:42:39.658Z,59.58
2022-11-09T05:45:35.472Z,54.80
2022-11-09T05:47:54.117Z,64.80
2022-11-09T05:50:20.853Z,59.00
2022-11-09T05:52:47.545Z,56.65
2022-11-09T05:55:14.174Z,60.22
2022-11-09T05:57:40.792Z,62.88
2022-11-09T06:00:10.939Z,59.90
2022-11-09T06:02:38.018Z,67.13
2022-11-09T06:05:04.970Z,67.57
2022-11-09T06:07:32.774Z,58.90
2022-11-09T06:09:59.433Z,63.20
2022-11-09T06:12:26.056Z,59.40
2022-11-09T06:14:52.876Z,57.92
2022-11-09T06:17:19.724Z,65.70
2022-11-09T06:19:46.334Z,76.20
2022-11-09T06:22:12.952Z,71.57
2022-11-09T06:24:39.796Z,64.93
2022-11-09T06:27:06.796Z,63.05
2022-11-09T06:29:33.769Z,63.80
2022-11-09T06:32:01.184Z,60.70
2022-11-09T06:34:27.839Z,61.22
2022-11-09T06:36:54.484Z,60.63
2022-11-09T06:39:21.289Z,70.85
2022-11-09T06:41:47.931Z,61.33
2022-11-09T06:44:15.267Z,53.33
2022-11-09T06:46:42.209Z,50.47
2022-11-09T06:49:08.922Z,61.30
2022-11-09T06:51:35.656Z,59.22
2022-11-09T06:54:02.488Z,57.88
2022-11-09T06:56:29.141Z,49.60
2022-11-09T06:58:55.809Z,50.35
2022-11-09T07:01:28.262Z,53.45
2022-11-09T07:03:55.142Z,52.50
2022-11-09T07:06:21.846Z,46.05
2022-11-09T07:08:48.487Z,56.00
2022-11-09T07:11:19.747Z,53.08
2022-11-09T07:13:53.447Z,58.22
2022-11-09T07:16:22.945Z,50.38
2022-11-09T07:18:49.643Z,62.25
2022-11-09T07:21:16.246Z,54.40
2022-11-09T07:23:43.476Z,60.40
2022-11-09T07:26:10.348Z,50.72
2022-11-09T07:28:37.025Z,56.42
2022-11-09T07:31:04.035Z,50.38
2022-11-09T07:33:32.747Z,48.53
2022-11-09T07:36:01.307Z,57.05
2022-11-09T07:38:31.464Z,75.63
2022-11-09T07:41:00.433Z,60.00
2022-11-09T07:43:27.756Z,57.42
2022-11-09T07:45:54.617Z,52.95
2022-11-09T07:48:21.464Z,54.60
2022-11-09T07:50:48.593Z,56.47
2022-11-09T07:53:16.146Z,53.70
2022-11-09T07:55:42.913Z,46.90
2022-11-09T07:58:13.399Z,47.25
2022-11-09T08:00:41.420Z,51.50
2022-11-09T08:03:08.235Z,56.50
2022-11-09T08:05:35.726Z,51.10
2022-11-09T08:08:05.194Z,53.50
2022-11-09T08:10:33.238Z,45.28
2022-11-09T08:13:02.693Z,49.70
2022-11-09T08:15:30.034Z,46.63
2022-11-09T08:18:05.216Z,49.13
2022-11-09T08:20:32.228Z,46.85
2022-11-09T08:23:03.780Z,49.63
2022-11-09T08:25:35.925Z,44.10
2022-11-09T08:28:03.724Z,45.50
2022-11-09T08:30:31.413Z,52.70
2022-11-09T08:33:02.952Z,47.15
2022-11-09T08:35:30.266Z,40.40
2022-11-09T08:38:00.458Z,38.90
2022-11-09T08:40:27.339Z,41.55
2022-11-09T08:42:54.249Z,49.53
2022-11-09T08:45:21.002Z,49.88
2022-11-09T08:47:48.404Z,44.55
2022-11-09T08:50:15.577Z,43.42
2022-11-09T08:52:42.865Z,57.10
2022-11-09T08:55:09.831Z,45.67
2022-11-09T08:57:36.558Z,47.47
2022-11-09T09:00:04.723Z,46.80
2022-11-09T09:02:31.662Z,44.50
2022-11-09T09:04:58.333Z,46.70
2022-11-09T09:07:25.088Z,45.58
2022-11-09T09:09:51.822Z,48.45
2022-11-09T09:12:19.005Z,40.10
2022-11-09T09:14:45.711Z,45.45
2022-11-09T09:17:12.566Z,43.40
2022-11-09T09:19:39.230Z,48.88
2022-11-09T09:22:06.074Z,48.20
2022-11-09T09:24:32.829Z,45.63
2022-11-09T09:26:59.514Z,46.22
2022-11-09T09:29:26.670Z,51.90
2022-11-09T09:31:53.526Z,47.13
2022-11-09T09:34:20.150Z,47.00
2022-11-09T09:36:48.402Z,50.50
2022-11-09T09:39:15.656Z,51.53
2022-11-09T09:41:55.809Z,48.40
2022-11-09T09:44:29.214Z,50.45
2022-11-09T09:47:00.320Z,47.10
2022-11-09T09:49:31.416Z,52.78
2022-11-09T09:52:36.321Z,46.50
2022-11-09T09:55:33.052Z,59.38
2022-11-09T09:58:07.820Z,48.65
2022-11-09T10:00:36.310Z,50.53
2022-11-09T10:03:03.608Z,46.95
2022-11-09T10:05:51.528Z,53.55
2022-11-09T10:08:54.986Z,49.53
2022-11-09T10:12:04.018Z,48.08
2022-11-09T10:15:15.791Z,49.75
2022-11-09T10:18:08.036Z,48.35
2022-11-09T10:20:53.261Z,44.45
2022-11-09T10:23:40.173Z,43.70
2022-11-09T10:26:21.585Z,53.95
2022-11-09T10:29:15.090Z,52.42
2022-11-09T10:31:46.345Z,44.58
2022-11-09T10:34:35.450Z,44.70
2022-11-09T10:37:10.702Z,40.95
2022-11-09T10:39:47.521Z,41.58
2022-11-09T10:42:14.199Z,43.50
2022-11-09T10:44:41.312Z,50.72
2022-11-09T10:47:11.411Z,46.63
2022-11-09T10:49:39.364Z,51.05
2022-11-09T10:52:27.082Z,46.40
2022-11-09T10:54:53.869Z,48.15
2022-11-09T10:57:23.493Z,45.20
2022-11-09T11:00:01.102Z,48.03
2022-11-09T11:02:29.030Z,42.05
2022-11-09T11:05:07.697Z,46.08
2022-11-09T11:07:35.816Z,50.75
2022-11-09T11:10:18.390Z,48.75
2022-11-09T11:12:51.974Z,46.42
2022-11-09T11:15:32.810Z,39.85
2022-11-09T11:18:13.077Z,40.45
2022-11-09T11:20:39.732Z,43.70
2022-11-09T11:23:09.236Z,43.30
2022-11-09T11:25:54.020Z,44.65
2022-11-09T11:28:56.487Z,41.55
2022-11-09T11:33:50.095Z,43.22
2022-11-09T11:36:58.245Z,47.88
2022-11-09T11:39:36.635Z,47.63
2022-11-09T11:42:24.638Z,44.25
2022-11-09T11:45:40.145Z,41.63
2022-11-09T11:48:26.510Z,38.50
2022-11-09T11:51:18.282Z,38.38
2022-11-09T11:54:15.108Z,43.75
2022-11-09T11:57:02.031Z,37.78
2022-11-09T11:59:37.814Z,38.13
2022-11-09T12:02:32.337Z,39.95
2022-11-09T12:05:46.634Z,41.85
2022-11-09T12:08:25.653Z,45.08
2022-11-09T12:11:01.322Z,37.00
2022-11-09T12:13:48.433Z,42.88
2022-11-09T12:16:26.089Z,45.10
2022-11-09T12:19:35.558Z,41.08
2022-11-09T12:22:25.135Z,43.30
2022-11-09T12:24:58.301Z,42.05
2022-11-09T12:27:54.069Z,41.78
2022-11-09T12:30:24.053Z,44.83
2022-11-09T12:33:15.865Z,38.83
2022-11-09T12:35:55.815Z,45.45
2022-11-09T12:38:36.662Z,44.97
2022-11-09T12:41:16.305Z,39.95
2022-11-09T12:43:52.834Z,44.78
2022-11-09T12:46:23.612Z,37.92
2022-11-09T12:48:50.318Z,46.97
2022-11-09T12:51:17.704Z,46.70
2022-11-09T12:53:44.506Z,40.10
2022-11-09T12:56:24.856Z,52.05
2022-11-09T12:58:51.791Z,37.88
2022-11-09T13:01:33.715Z,42.90
2022-11-09T13:04:03.158Z,44.80
2022-11-09T13:06:32.267Z,42.08
2022-11-09T13:09:18.512Z,42.03
2022-11-09T13:11:48.415Z,40.92
2022-11-09T13:14:29.242Z,47.03
2022-11-09T13:17:01.497Z,44.88
2022-11-09T13:19:34.065Z,39.08
2022-11-09T13:22:20.690Z,40.17
2022-11-09T13:24:54.378Z,44.47
2022-11-09T13:27:32.734Z,49.17
2022-11-09T13:30:01.010Z,43.08
2022-11-09T13:32:29.979Z,47.38
2022-11-09T13:34:58.418Z,40.50
2022-11-09T13:37:40.725Z,44.88
2022-11-09T13:40:32.201Z,42.90
2022-11-09T13:43:04.098Z,35.63
2022-11-09T13:45:39.146Z,45.33
2022-11-09T13:48:06.985Z,50.30
2022-11-09T13:50:35.030Z,41.55
2022-11-09T13:53:02.570Z,38.08
2022-11-09T13:55:47.306Z,43.97
2022-11-09T13:58:28.891Z,39.03
2022-11-09T14:00:55.517Z,37.35
2022-11-09T14:03:26.018Z,48.88
2022-11-09T14:05:55.742Z,39.38
2022-11-09T14:08:24.441Z,36.85
2022-11-09T14:11:16.146Z,43.45
2022-11-09T14:14:03.137Z,48.20
2022-11-09T14:16:39.058Z,36.97
2022-11-09T14:19:17.870Z,45.80
2022-11-09T14:21:47.838Z,38.85
2022-11-09T14:24:32.727Z,42.90
2022-11-09T14:27:13.444Z,44.00
2022-11-09T14:29:57.635Z,57.08
2022-11-09T14:32:36.213Z,43.60
2022-11-09T14:35:14.749Z,38.53
2022-11-09T14:37:45.269Z,41.03
2022-11-09T14:40:21.719Z,60.08
2022-11-09T14:42:51.405Z,48.03
2022-11-09T14:45:18.327Z,53.90
2022-11-09T14:47:47.408Z,49.03
2022-11-09T14:50:24.106Z,45.45
2022-11-09T14:52:52.937Z,46.65
2022-11-09T14:55:21.530Z,47.78
2022-11-09T14:57:50.262Z,45.47
2022-11-09T15:00:38.740Z,45.58
2022-11-09T15:03:26.131Z,53.67
2022-11-09T15:06:14.926Z,52.97
2022-11-09T15:09:00.345Z,54.30
2022-11-09T15:11:39.305Z,47.65
2022-11-09T15:14:19.010Z,50.45
2022-11-09T15:16:47.967Z,56.63
2022-11-09T15:19:30.014Z,50.90
2022-11-09T15:21:56.877Z,49.00
2022-11-09T15:24:25.866Z,43.38
2022-11-09T15:26:53.755Z,54.60
2022-11-09T15:29:35.617Z,53.13
2022-11-09T15:32:11.683Z,51.90
2022-11-09T15:34:59.383Z,53.67
2022-11-09T15:37:47.444Z,55.08
2022-11-09T15:40:17.200Z,56.40
2022-11-09T15:42:46.376Z,58.13
2022-11-09T15:45:18.461Z,51.65
2022-11-09T15:47:53.879Z,53.10
2022-11-09T15:50:24.348Z,57.88
2022-11-09T15:52:52.020Z,61.42
2022-11-09T15:55:23.362Z,66.10
2022-11-09T15:57:52.501Z,69.23
2022-11-09T16:00:21.482Z,59.15
2022-11-09T16:02:48.755Z,59.97
2022-11-09T16:05:16.038Z,54.28
2022-11-09T16:07:50.171Z,47.42
2022-11-09T16:10:20.533Z,56.13
2022-11-09T16:12:47.609Z,51.72
2022-11-09T16:15:14.391Z,57.22
2022-11-09T16:17:40.994Z,50.10
2022-11-09T16:20:08.186Z,58.00
2022-11-09T16:22:35.061Z,64.22
2022-11-09T16:25:01.951Z,56.35
2022-11-09T16:27:49.200Z,53.72
2022-11-09T16:30:15.861Z,52.50
2022-11-09T16:32:42.765Z,55.28
2022-11-09T16:35:27.767Z,57.90
2022-11-09T16:37:55.475Z,59.65
2022-11-09T16:40:22.958Z,63.92
2022-11-09T16:42:51.637Z,53.13
2022-11-09T16:45:18.300Z,67.60
2022-11-09T16:47:56.402Z,51.15
2022-11-09T16:50:24.592Z,55.50
2022-11-09T16:52:51.385Z,58.53
2022-11-09T16:55:18.005Z,61.30
2022-11-09T16:57:46.316Z,68.68
2022-11-09T17:00:13.834Z,65.68
2022-11-09T17:02:40.389Z,66.65
2022-11-09T17:05:07.390Z,68.63
2022-11-09T17:07:42.124Z,69.90
2022-11-09T17:10:09.689Z,73.18
2022-11-09T17:12:36.582Z,76.32
2022-11-09T17:15:03.310Z,73.15
2022-11-09T17:17:29.954Z,70.05
2022-11-09T17:19:56.695Z,76.30
2022-11-09T17:22:23.391Z,88.38
2022-11-09T17:24:50.225Z,69.60
2022-11-09T17:27:16.966Z,91.93
2022-11-09T17:29:43.556Z,94.10
2022-11-09T17:32:10.656Z,113.45
2022-11-09T17:34:37.557Z,129.45
2022-11-09T17:37:05.553Z,123.65
2022-11-09T17:39:33.008Z,122.30
2022-11-09T17:41:59.785Z,108.85
2022-11-09T17:44:27.019Z,123.00
2022-11-09T17:46:53.834Z,109.00
2022-11-09T17:49:20.398Z,98.68
2022-11-09T17:51:47.101Z,113.65
2022-11-09T17:54:15.051Z,105.57
2022-11-09T17:56:41.999Z,102.85
2022-11-09T17:59:09.186Z,99.97
2022-11-09T18:01:41.042Z,104.82
2022-11-09T18:04:10.723Z,100.13
2022-11-09T18:06:38.824Z,97.85
2022-11-09T18:11:53.066Z,95.55
2022-11-09T18:14:20.029Z,88.10
2022-11-09T18:16:46.730Z,92.43
2022-11-09T18:19:13.485Z,105.68
2022-11-09T18:21:40.177Z,118.68
2022-11-09T18:24:07.374Z,116.38
2022-11-09T18:26:34.380Z,119.32
2022-11-09T18:29:01.270Z,120.07
2022-11-09T18:31:28.053Z,115.95
2022-11-09T18:34:59.684Z,117.03
2022-11-09T18:38:20.340Z,91.50
2022-11-09T18:41:01.512Z,90.43
2022-11-09T18:43:28.325Z,86.75
2022-11-09T18:46:02.993Z,106.25
2022-11-09T18:48:30.372Z,100.80
2022-11-09T18:50:58.745Z,101.13
2022-11-09T18:53:33.625Z,99.70
2022-11-09T18:56:06.548Z,92.85
2022-11-09T18:58:34.205Z,97.15
2022-11-09T19:01:06.152Z,93.35
2022-11-09T19:03:33.416Z,94.47
2022-11-09T19:06:08.120Z,95.60
2022-11-09T19:08:53.765Z,109.35
2022-11-09T19:11:20.413Z,112.32
2022-11-09T19:13:47.739Z,110.60
2022-11-09T19:16:15.460Z,118.78
2022-11-09T19:18:44.674Z,109.53
2022-11-09T19:21:31.833Z,111.43
2022-11-09T19:23:58.627Z,118.60
2022-11-09T19:26:27.747Z,126.55
2022-11-09T19:28:54.396Z,108.03
2022-11-09T19:31:22.691Z,104.90
2022-11-09T19:33:49.347Z,107.85
2022-11-09T19:36:29.775Z,102.53
2022-11-09T19:38:57.867Z,117.65
2022-11-09T19:41:26.018Z,108.53
2022-11-09T19:43:55.625Z,118.30
2022-11-09T19:46:22.369Z,126.15
2022-11-09T19:48:49.328Z,110.68
2022-11-09T19:51:17.813Z,132.57
2022-11-09T19:53:52.733Z,128.77
2022-11-09T19:56:21.184Z,133.98
2022-11-09T19:58:54.309Z,125.32
2022-11-09T20:01:24.715Z,106.47
2022-11-09T20:03:56.867Z,101.38
2022-11-09T20:06:24.559Z,101.75
2022-11-09T20:08:52.238Z,98.05
2022-11-09T20:11:41.682Z,102.40
2022-11-09T20:14:09.559Z,101.45
2022-11-09T20:16:37.360Z,96.55
2022-11-09T20:19:05.930Z,97.13
2022-11-09T20:21:32.924Z,97.70
2022-11-09T20:23:59.567Z,104.68
2022-11-09T20:26:26.289Z,99.80
2022-11-09T20:28:54.799Z,93.88
2022-11-09T20:31:25.786Z,100.72
2022-11-09T20:33:56.613Z,96.38
2022-11-09T20:36:23.158Z,101.15
2022-11-09T20:38:49.939Z,92.20
2022-11-09T20:41:18.013Z,89.72
2022-11-09T20:43:47.230Z,85.40
2022-11-09T20:46:19.774Z,88.10
2022-11-09T20:48:54.220Z,88.30
2022-11-09T20:51:22.822Z,98.80
2022-11-09T20:53:50.846Z,94.28
2022-11-09T20:56:18.848Z,86.70
2022-11-09T20:58:45.834Z,86.20
2022-11-09T21:01:15.948Z,96.25
2022-11-09T21:03:43.496Z,92.22
2022-11-09T21:06:11.992Z,92.53
2022-11-09T21:08:39.094Z,101.18
2022-11-09T21:11:08.016Z,83.22
2022-11-09T21:13:34.835Z,89.65
2022-11-09T21:16:10.169Z,86.72
2022-11-09T21:18:36.900Z,82.68
2022-11-09T21:21:15.681Z,100.45
2022-11-09T21:24:01.285Z,85.15
2022-11-09T21:26:47.333Z,93.50
2022-11-09T21:29:41.449Z,99.63
2022-11-09T21:32:09.472Z,96.43
2022-11-09T21:34:37.297Z,108.43
2022-11-09T21:37:04.687Z,88.57
2022-11-09T21:39:31.434Z,85.13
2022-11-09T21:41:58.786Z,88.75
2022-11-09T21:44:27.776Z,94.78
2022-11-09T21:46:54.491Z,91.70
2022-11-09T21:49:21.751Z,91.57
2022-11-09T21:51:48.411Z,89.28
2022-11-09T21:54:15.134Z,85.95
2022-11-09T21:56:41.940Z,96.43
2022-11-09T21:59:08.652Z,87.93
2022-11-09T22:01:35.886Z,94.50
2022-11-09T22:04:02.736Z,92.90
2022-11-09T22:06:30.248Z,92.82
2022-11-09T22:08:57.002Z,81.47
2022-11-09T22:11:46.118Z,88.15
2022-11-09T22:14:33.555Z,92.28
2022-11-09T22:17:00.745Z,94.68
2022-11-09T22:19:47.181Z,101.93
2022-11-09T22:22:14.670Z,90.40
2022-11-09T22:24:41.379Z,89.47
2022-11-09T22:27:08.184Z,97.63
2022-11-09T22:29:34.894Z,90.57
2022-11-09T22:32:02.687Z,92.57
2022-11-09T22:34:29.387Z,98.70
2022-11-09T22:36:56.068Z,98.25
2022-11-09T22:39:22.796Z,98.38
2022-11-09T22:41:49.429Z,89.65
2022-11-09T22:44:16.164Z,92.82
2022-11-09T22:46:42.971Z,96.90
2022-11-09T22:49:10.444Z,94.63
2022-11-09T22:51:37.239Z,97.18
2022-11-09T22:54:04.099Z,101.05
2022-11-09T22:56:30.820Z,99.38
2022-11-09T22:58:57.459Z,98.63
2022-11-09T23:01:24.192Z,100.63
2022-11-09T23:03:50.990Z,98.18
2022-11-09T23:06:20.952Z,99.97
2022-11-09T23:08:48.250Z,100.80
2022-11-09T23:11:17.882Z,97.93
2022-11-09T23:13:48.328Z,99.95
2022-11-09T23:16:15.171Z,101.20
2022-11-09T23:18:54.102Z,93.30
2022-11-09T23:21:41.551Z,99.68
2022-11-09T23:24:30.981Z,104.75
2022-11-09T23:26:57.546Z,94.68
2022-11-09T23:29:24.220Z,84.60
2022-11-09T23:31:50.801Z,92.32
2022-11-09T23:34:17.690Z,90.70
2022-11-09T23:36:44.484Z,94.57
2022-11-09T23:39:11.259Z,92.22
2022-11-09T23:41:37.890Z,102.55
2022-11-09T23:44:04.541Z,91.90
2022-11-09T23:46:31.177Z,96.85
2022-11-09T23:48:57.897Z,104.10
2022-11-09T23:51:24.627Z,108.90
2022-11-09T23:53:51.378Z,106.82
2022-11-09T23:56:19.306Z,119.85
2022-11-09T23:58:51.463Z,106.50
